Time;durP1;ratioP1;P1;durP2;ratioP2;P2;SDS_P1;SDS_P2;PMS_P1;PMS_P2;Temp;Humidity;BMP_temperature;BMP_pressure;BME280_temperature;BME280_humidity;BME280_pressure;Samples;Min_cycle;Max_cycle;Signal;HPM_P1;HPM_P2
2022/07/28 00:01:55;;;;;;;4.88;1.73;;;14.40;95.30;;;;;;4718053;28;9999819;-73
2022/07/28 00:04:20;;;;;;;5.68;1.70;;;14.40;95.50;;;;;;5056096;28;20032;-73
2022/07/28 00:06:46;;;;;;;6.03;1.80;;;14.40;95.80;;;;;;5056535;28;20051;-73
2022/07/28 00:09:12;;;;;;;5.35;1.58;;;14.30;96.30;;;;;;5070454;28;20077;-73
2022/07/28 00:11:37;;;;;;;1.63;1.30;;;14.20;96.50;;;;;;5058751;28;20029;-74
2022/07/28 00:14:03;;;;;;;2.72;1.52;;;14.00;96.60;;;;;;5066692;28;20024;-73
2022/07/28 00:16:29;;;;;;;4.93;1.23;;;13.80;97.00;;;;;;5051236;28;20371;-74
2022/07/28 00:18:54;;;;;;;2.42;1.20;;;13.80;97.40;;;;;;5068657;28;20088;-74
2022/07/28 00:21:20;;;;;;;5.00;1.55;;;13.80;97.50;;;;;;5075026;28;20034;-74
2022/07/28 00:23:45;;;;;;;6.18;1.83;;;13.80;97.40;;;;;;5048226;28;20426;-73
2022/07/28 00:26:11;;;;;;;3.67;1.48;;;13.90;97.30;;;;;;5046436;28;20028;-74
2022/07/28 00:28:37;;;;;;;7.53;1.73;;;13.90;97.10;;;;;;5054018;28;20087;-74
2022/07/28 00:31:04;;;;;;;6.32;1.40;;;14.00;97.10;;;;;;5065530;28;20313;-73
2022/07/28 00:33:30;;;;;;;7.28;1.77;;;13.90;97.30;;;;;;5066469;28;20044;-74
2022/07/28 00:35:55;;;;;;;6.05;1.80;;;13.90;97.10;;;;;;5057051;28;20033;-74
2022/07/28 00:38:21;;;;;;;4.53;1.40;;;14.00;97.00;;;;;;5061064;28;20248;-74
2022/07/28 00:43:31;;;;;;;5.50;1.50;;;14.00;97.10;;;;;;5058355;28;20503;-73
2022/07/28 00:45:58;;;;;;;4.85;1.42;;;14.00;97.40;;;;;;5061397;28;20079;-73
2022/07/28 00:48:23;;;;;;;4.18;1.83;;;14.00;97.20;;;;;;5061941;28;20461;-74
2022/07/28 00:50:51;;;;;;;4.70;1.60;;;13.90;97.50;;;;;;5065846;28;20040;-74
2022/07/28 00:53:17;;;;;;;5.25;1.80;;;13.90;97.80;;;;;;5067709;28;20033;-74
2022/07/28 00:55:42;;;;;;;3.00;1.58;;;13.80;97.80;;;;;;5072666;28;20245;-73
2022/07/28 00:58:08;;;;;;;7.80;1.83;;;13.80;98.20;;;;;;5073518;28;20027;-73
2022/07/28 01:00:33;;;;;;;7.07;1.50;;;13.70;98.30;;;;;;5055141;28;20032;-73
2022/07/28 01:03:00;;;;;;;7.88;1.85;;;13.70;98.60;;;;;;5067943;28;20409;-73
2022/07/28 01:05:44;;;;;;;4.70;1.65;;;13.60;98.80;;;;;;5057982;28;20048;-73
2022/07/28 01:08:22;;;;;;;7.50;1.70;;;13.60;98.90;;;;;;5057417;28;20024;-73
2022/07/28 01:11:05;;;;;;;5.80;2.10;;;13.50;99.10;;;;;;5074406;28;20028;-73
2022/07/28 01:14:07;;;;;;;4.68;1.75;;;13.50;99.40;;;;;;5054627;28;20095;-73
2022/07/28 01:16:44;;;;;;;5.22;1.90;;;13.50;99.60;;;;;;5059955;28;20117;-73
2022/07/28 01:19:15;;;;;;;6.18;1.85;;;13.50;99.80;;;;;;5055697;28;20081;-73
2022/07/28 01:21:43;;;;;;;7.38;1.88;;;13.50;99.90;;;;;;5056114;28;20060;-73
2022/07/28 01:24:39;;;;;;;6.20;1.80;;;13.50;99.90;;;;;;5060032;28;20036;-73
2022/07/28 01:27:37;;;;;;;4.32;1.77;;;13.50;99.90;;;;;;5045866;28;20499;-73
2022/07/28 01:30:21;;;;;;;4.47;1.65;;;13.50;99.90;;;;;;5052141;28;20089;-73
2022/07/28 01:32:56;;;;;;;5.80;1.92;;;13.40;99.90;;;;;;5058039;28;20469;-73
2022/07/28 01:35:30;;;;;;;6.25;2.08;;;13.40;99.90;;;;;;5076596;28;20047;-73
2022/07/28 01:38:02;;;;;;;8.68;1.73;;;13.50;99.90;;;;;;5060533;28;20049;-73
2022/07/28 01:40:34;;;;;;;4.68;1.77;;;13.50;99.90;;;;;;5057237;28;20036;-73
2022/07/28 01:43:04;;;;;;;3.17;1.52;;;13.40;99.90;;;;;;5051174;28;20068;-73
2022/07/28 01:45:32;;;;;;;6.05;1.60;;;13.40;99.90;;;;;;5053635;28;20041;-73
2022/07/28 01:48:00;;;;;;;6.50;1.88;;;13.30;99.90;;;;;;5053881;28;20652;-73
2022/07/28 01:50:28;;;;;;;6.40;1.85;;;13.30;99.90;;;;;;5055460;28;20124;-74
2022/07/28 01:52:56;;;;;;;7.07;1.80;;;13.30;99.90;;;;;;5055402;28;20021;-74
2022/07/28 01:55:23;;;;;;;5.90;1.67;;;13.30;99.90;;;;;;5061362;28;20483;-74
2022/07/28 01:57:51;;;;;;;4.20;1.52;;;13.20;99.90;;;;;;5069420;28;20435;-73
2022/07/28 02:00:18;;;;;;;6.75;2.00;;;13.30;99.90;;;;;;5056334;28;20031;-73
2022/07/28 02:02:46;;;;;;;5.70;1.70;;;13.30;99.90;;;;;;5051337;28;20054;-74
2022/07/28 02:05:15;;;;;;;6.22;1.80;;;13.30;99.90;;;;;;5079629;28;20179;-73
2022/07/28 02:07:43;;;;;;;9.90;1.60;;;13.40;99.90;;;;;;5060767;28;20103;-74
2022/07/28 02:10:13;;;;;;;5.03;1.90;;;13.40;99.90;;;;;;5052048;28;20083;-74
2022/07/28 02:12:40;;;;;;;5.70;1.55;;;13.40;99.90;;;;;;5057743;28;20074;-73
2022/07/28 02:15:08;;;;;;;5.07;1.55;;;13.40;99.90;;;;;;5053100;28;20036;-73
2022/07/28 02:17:35;;;;;;;6.07;1.40;;;13.40;99.90;;;;;;5076518;28;20061;-73
2022/07/28 02:20:04;;;;;;;5.18;1.70;;;13.40;99.90;;;;;;5050851;28;20028;-73
2022/07/28 02:22:29;;;;;;;7.55;1.70;;;13.40;99.90;;;;;;5061249;28;20032;-73
2022/07/28 02:24:55;;;;;;;5.63;1.63;;;13.40;99.90;;;;;;5054240;28;20047;-73
2022/07/28 02:27:43;;;;;;;5.45;1.65;;;13.40;99.90;;;;;;5061830;28;20036;-73
2022/07/28 02:30:15;;;;;;;8.45;1.60;;;13.40;99.90;;;;;;5057717;28;20028;-73
2022/07/28 02:32:55;;;;;;;6.47;1.70;;;13.30;99.90;;;;;;5048354;28;20016;-73
2022/07/28 02:35:24;;;;;;;7.45;1.70;;;13.30;99.90;;;;;;5071163;28;20031;-73
2022/07/28 02:37:56;;;;;;;8.00;1.70;;;13.30;99.90;;;;;;5072803;28;20525;-73
2022/07/28 02:40:22;;;;;;;11.65;1.73;;;13.20;99.90;;;;;;5065733;28;20025;-73
2022/07/28 02:42:50;;;;;;;4.38;1.80;;;13.20;99.90;;;;;;5055463;28;20032;-73
2022/07/28 02:45:19;;;;;;;3.83;1.70;;;13.20;99.90;;;;;;5073643;28;20040;-73
2022/07/28 02:47:50;;;;;;;7.03;2.08;;;13.20;99.90;;;;;;5063122;28;20235;-73
2022/07/28 02:50:22;;;;;;;8.07;1.60;;;13.20;99.90;;;;;;5053612;28;20028;-73
2022/07/28 02:52:48;;;;;;;6.68;1.83;;;13.20;99.90;;;;;;5054629;28;20538;-73
2022/07/28 02:55:15;;;;;;;6.65;1.65;;;13.20;99.90;;;;;;5046209;28;20158;-73
2022/07/28 02:57:44;;;;;;;7.35;1.80;;;13.10;99.90;;;;;;5069553;28;20032;-73
2022/07/28 03:00:10;;;;;;;10.98;2.05;;;13.10;99.90;;;;;;5060044;28;20099;-73
2022/07/28 03:02:38;;;;;;;7.05;2.00;;;13.10;99.90;;;;;;5062093;28;20017;-73
2022/07/28 03:05:06;;;;;;;5.70;1.58;;;13.10;99.90;;;;;;5050847;28;20317;-73
2022/07/28 03:07:35;;;;;;;7.00;1.90;;;13.10;99.90;;;;;;5054234;28;20047;-73
2022/07/28 03:10:02;;;;;;;4.65;1.50;;;13.00;99.90;;;;;;5057926;28;20451;-73
2022/07/28 03:12:28;;;;;;;7.13;1.65;;;13.00;99.90;;;;;;5067837;28;20115;-73
2022/07/28 03:14:54;;;;;;;5.68;1.70;;;13.00;99.90;;;;;;5055754;28;20028;-73
2022/07/28 03:17:19;;;;;;;5.82;1.63;;;13.00;99.90;;;;;;5054738;28;20055;-73
2022/07/28 03:19:45;;;;;;;9.52;1.67;;;13.00;99.90;;;;;;5054534;28;20025;-73
2022/07/28 03:22:11;;;;;;;6.68;1.55;;;12.90;99.90;;;;;;5050290;28;20029;-73
2022/07/28 03:24:40;;;;;;;6.25;1.90;;;12.90;99.90;;;;;;5061313;28;20394;-73
2022/07/28 03:27:26;;;;;;;8.95;1.50;;;12.90;99.90;;;;;;5062274;28;20237;-73
2022/07/28 03:29:57;;;;;;;6.53;2.20;;;12.90;99.90;;;;;;5055918;28;20036;-73
2022/07/28 03:32:25;;;;;;;8.80;1.75;;;12.90;99.90;;;;;;5053727;28;20024;-73
2022/07/28 03:34:51;;;;;;;7.18;1.80;;;12.90;99.90;;;;;;5058648;28;20032;-73
2022/07/28 03:37:26;;;;;;;6.15;1.60;;;12.90;99.90;;;;;;5051106;28;20400;-73
2022/07/28 03:39:55;;;;;;;5.60;1.60;;;12.80;99.90;;;;;;5058925;28;20558;-73
2022/07/28 03:42:22;;;;;;;4.60;1.80;;;12.80;99.90;;;;;;5050379;28;20029;-73
2022/07/28 03:44:47;;;;;;;4.78;1.60;;;12.80;99.90;;;;;;5074014;28;20051;-73
2022/07/28 03:47:13;;;;;;;8.25;1.77;;;12.80;99.90;;;;;;5052323;28;20145;-73
2022/07/28 03:49:39;;;;;;;5.07;1.50;;;12.80;99.90;;;;;;5050367;28;20156;-73
2022/07/28 03:52:05;;;;;;;6.15;2.00;;;12.80;99.90;;;;;;5044911;28;20045;-73
2022/07/28 03:54:30;;;;;;;5.80;1.70;;;12.80;99.90;;;;;;5046666;28;20439;-73
2022/07/28 03:56:56;;;;;;;6.55;1.90;;;12.80;99.90;;;;;;5052026;28;20497;-73
2022/07/28 03:59:22;;;;;;;10.63;2.13;;;12.80;99.90;;;;;;5054540;28;20027;-73
2022/07/28 04:01:48;;;;;;;4.45;1.83;;;12.70;99.90;;;;;;5049257;28;20321;-73
2022/07/28 04:04:13;;;;;;;8.50;2.22;;;12.70;99.90;;;;;;5053175;28;20504;-73
2022/07/28 04:06:39;;;;;;;5.90;1.80;;;12.70;99.90;;;;;;5053466;28;20886;-73
2022/07/28 04:09:05;;;;;;;6.63;2.30;;;12.70;99.90;;;;;;5051671;28;20035;-73
2022/07/28 04:11:30;;;;;;;7.90;2.30;;;12.70;99.90;;;;;;5056899;28;20115;-73
2022/07/28 04:13:56;;;;;;;8.18;2.00;;;12.60;99.90;;;;;;5058057;28;20027;-73
2022/07/28 04:16:22;;;;;;;9.20;1.95;;;12.60;99.90;;;;;;5071402;28;20116;-73
2022/07/28 04:18:47;;;;;;;6.53;2.20;;;12.60;99.90;;;;;;5061320;28;20028;-73
2022/07/28 04:21:13;;;;;;;9.52;2.10;;;12.60;99.90;;;;;;5056269;28;20389;-73
2022/07/28 04:23:39;;;;;;;7.18;1.80;;;12.60;99.90;;;;;;5055139;28;20051;-73
2022/07/28 04:26:04;;;;;;;5.25;1.80;;;12.60;99.90;;;;;;5049596;28;20576;-73
2022/07/28 04:28:30;;;;;;;5.95;1.80;;;12.60;99.90;;;;;;5055914;28;20044;-74
2022/07/28 04:30:56;;;;;;;6.40;1.67;;;12.60;99.90;;;;;;5069728;28;20035;-74
2022/07/28 04:33:21;;;;;;;6.53;1.98;;;12.60;99.90;;;;;;5064116;28;20047;-73
2022/07/28 04:35:47;;;;;;;5.30;1.90;;;12.60;99.90;;;;;;5067631;28;20424;-73
2022/07/28 04:38:13;;;;;;;8.70;2.05;;;13.00;99.90;;;;;;5056172;28;20044;-73
2022/07/28 04:40:41;;;;;;;4.00;1.95;;;13.70;99.90;;;;;;5061569;28;20175;-73
2022/07/28 04:43:09;;;;;;;6.95;1.58;;;14.40;99.90;;;;;;5061945;28;20036;-73
2022/07/28 04:45:35;;;;;;;6.82;1.58;;;15.20;99.90;;;;;;5060782;28;20029;-73
2022/07/28 04:48:01;;;;;;;7.25;1.92;;;15.40;99.90;;;;;;5063700;28;20028;-73
2022/07/28 04:50:26;;;;;;;8.05;1.90;;;15.10;99.90;;;;;;5065147;28;20622;-73
2022/07/28 04:52:53;;;;;;;5.95;1.70;;;14.80;99.90;;;;;;5057005;28;20024;-73
2022/07/28 04:55:18;;;;;;;9.73;1.92;;;14.60;99.90;;;;;;5066743;28;20035;-73
2022/07/28 04:57:44;;;;;;;9.73;2.22;;;14.40;99.90;;;;;;5068582;28;20024;-72
2022/07/28 05:00:12;;;;;;;10.73;2.20;;;14.20;99.90;;;;;;5069311;28;20019;-73
2022/07/28 05:02:38;;;;;;;6.82;1.77;;;14.10;99.90;;;;;;5049899;28;20067;-73
2022/07/28 05:05:05;;;;;;;6.63;1.75;;;13.90;99.90;;;;;;5053647;28;20025;-73
2022/07/28 05:07:30;;;;;;;6.45;2.10;;;13.70;99.90;;;;;;5064149;28;20032;-73
2022/07/28 05:09:56;;;;;;;6.32;1.77;;;13.60;99.90;;;;;;5077052;28;20085;-73
2022/07/28 05:12:21;;;;;;;7.32;1.88;;;13.50;99.90;;;;;;5062398;28;20057;-73
2022/07/28 05:14:47;;;;;;;4.07;2.00;;;13.50;99.90;;;;;;5052003;28;20318;-73
2022/07/28 05:17:13;;;;;;;9.98;2.20;;;13.60;99.90;;;;;;5051910;28;20107;-73
2022/07/28 05:19:39;;;;;;;6.28;1.90;;;13.70;99.90;;;;;;5051513;28;20557;-73
2022/07/28 05:22:04;;;;;;;6.60;1.85;;;13.70;99.90;;;;;;5059361;28;20116;-73
2022/07/28 05:24:30;;;;;;;4.97;1.88;;;13.80;99.90;;;;;;5063958;28;20032;-73
2022/07/28 05:26:56;;;;;;;5.15;1.90;;;13.80;99.90;;;;;;5063107;28;20021;-73
2022/07/28 05:29:21;;;;;;;5.00;1.70;;;13.80;99.90;;;;;;5055699;28;20021;-73
2022/07/28 05:31:47;;;;;;;7.35;1.98;;;13.80;99.90;;;;;;5048023;28;20028;-73
2022/07/28 05:34:13;;;;;;;6.15;1.80;;;13.80;99.90;;;;;;5059065;28;20028;-73
2022/07/28 05:36:38;;;;;;;6.60;2.10;;;13.80;99.90;;;;;;5060734;28;20028;-73
2022/07/28 05:39:04;;;;;;;6.45;2.15;;;13.90;99.90;;;;;;5061409;28;20020;-73
2022/07/28 05:41:30;;;;;;;13.82;2.13;;;13.90;99.90;;;;;;5062414;28;20294;-73
2022/07/28 05:43:57;;;;;;;7.03;1.92;;;14.00;99.90;;;;;;5061144;28;20036;-73
2022/07/28 05:46:23;;;;;;;4.65;1.83;;;14.10;99.90;;;;;;5075912;28;20035;-74
2022/07/28 05:48:49;;;;;;;5.50;1.55;;;14.20;99.90;;;;;;5065662;28;20029;-73
2022/07/28 05:51:14;;;;;;;9.13;1.40;;;14.30;99.90;;;;;;5072948;28;20032;-74
2022/07/28 05:53:40;;;;;;;4.82;1.50;;;14.40;99.90;;;;;;5052984;28;20031;-73
2022/07/28 05:56:05;;;;;;;6.03;1.60;;;14.50;99.90;;;;;;5075782;28;20232;-73
2022/07/28 05:58:31;;;;;;;5.65;1.52;;;14.60;99.90;;;;;;5076851;28;20020;-73
2022/07/28 06:00:58;;;;;;;5.53;1.42;;;14.70;99.90;;;;;;5054389;28;20048;-73
2022/07/28 06:03:24;;;;;;;12.40;1.80;;;14.70;99.90;;;;;;5062206;28;20508;-76
2022/07/28 06:05:54;;;;;;;9.07;1.90;;;14.70;99.90;;;;;;5056847;28;20039;-75
2022/07/28 06:08:20;;;;;;;7.70;1.70;;;14.80;99.90;;;;;;5071712;28;20079;-75
2022/07/28 06:10:58;;;;;;;8.02;1.80;;;14.80;99.90;;;;;;5064629;28;20037;-75
2022/07/28 06:13:24;;;;;;;4.07;1.33;;;14.80;99.90;;;;;;5061906;28;20025;-75
2022/07/28 06:15:51;;;;;;;8.55;1.70;;;14.70;99.90;;;;;;5047351;28;20025;-75
2022/07/28 06:18:17;;;;;;;8.48;1.95;;;14.70;99.90;;;;;;5068529;28;20032;-75
2022/07/28 06:20:44;;;;;;;9.32;1.80;;;14.70;99.90;;;;;;5065905;28;20056;-75
2022/07/28 06:23:10;;;;;;;5.05;1.95;;;14.80;99.90;;;;;;5056776;28;20107;-75
2022/07/28 06:25:35;;;;;;;8.25;1.67;;;14.80;99.90;;;;;;5062892;28;20720;-75
2022/07/28 06:28:04;;;;;;;6.03;1.70;;;14.90;99.90;;;;;;5054446;28;20027;-75
2022/07/28 06:30:30;;;;;;;8.30;1.60;;;14.90;99.90;;;;;;5057499;28;20048;-75
2022/07/28 06:32:56;;;;;;;7.13;1.80;;;15.00;99.90;;;;;;5060657;28;20027;-75
2022/07/28 06:35:22;;;;;;;5.57;1.70;;;15.00;99.90;;;;;;5084289;28;20054;-75
2022/07/28 06:37:49;;;;;;;6.78;1.90;;;15.10;99.90;;;;;;5075373;28;20040;-76
2022/07/28 06:40:16;;;;;;;7.22;2.13;;;15.10;99.90;;;;;;5066150;28;20396;-75
2022/07/28 06:42:43;;;;;;;10.13;1.73;;;15.20;99.90;;;;;;5058427;28;20027;-75
2022/07/28 06:45:10;;;;;;;5.47;1.80;;;15.30;99.90;;;;;;5052546;28;20690;-75
2022/07/28 06:47:35;;;;;;;7.57;1.92;;;15.50;99.90;;;;;;5059074;28;20028;-75
2022/07/28 06:50:01;;;;;;;6.57;1.90;;;15.60;99.90;;;;;;5055597;28;20024;-75
2022/07/28 06:52:27;;;;;;;6.25;1.33;;;15.90;99.90;;;;;;5055496;28;20123;-75
2022/07/28 06:54:53;;;;;;;4.82;1.70;;;16.10;99.90;;;;;;5061133;28;20025;-74
2022/07/28 06:57:20;;;;;;;6.43;1.70;;;16.40;99.90;;;;;;5061631;28;20527;-75
2022/07/28 06:59:47;;;;;;;7.63;1.73;;;16.70;99.90;;;;;;5061433;28;20033;-75
2022/07/28 07:02:13;;;;;;;5.13;1.50;;;16.90;99.50;;;;;;5049994;28;20017;-75
2022/07/28 07:04:39;;;;;;;7.40;1.55;;;17.10;99.10;;;;;;5057811;28;20451;-75
2022/07/28 07:07:05;;;;;;;8.10;1.80;;;17.40;98.60;;;;;;5046851;28;20036;-74
2022/07/28 07:09:31;;;;;;;5.18;1.38;;;17.60;98.00;;;;;;5058071;28;20256;-74
2022/07/28 07:11:57;;;;;;;11.95;1.83;;;17.80;97.60;;;;;;5065825;28;20520;-74
2022/07/28 07:14:23;;;;;;;7.63;1.60;;;17.90;96.90;;;;;;5053727;28;20037;-74
2022/07/28 07:16:49;;;;;;;11.38;1.27;;;18.10;96.60;;;;;;5054009;28;20043;-74
2022/07/28 07:19:15;;;;;;;4.80;1.63;;;18.20;96.30;;;;;;5061003;28;20037;-74
2022/07/28 07:21:41;;;;;;;4.32;1.30;;;18.40;96.20;;;;;;5073435;28;20086;-74
2022/07/28 07:24:07;;;;;;;9.82;1.40;;;18.50;95.80;;;;;;5079367;28;20044;-74
2022/07/28 07:26:32;;;;;;;5.78;1.25;;;18.60;95.20;;;;;;5049051;28;20063;-74
2022/07/28 07:28:58;;;;;;;4.30;1.10;;;18.70;94.70;;;;;;5045874;28;20116;-75
2022/07/28 07:31:24;;;;;;;6.88;1.45;;;18.80;94.50;;;;;;5069191;28;20520;-76
2022/07/28 07:33:49;;;;;;;4.50;1.15;;;19.00;94.30;;;;;;5059757;28;20064;-76
2022/07/28 07:36:15;;;;;;;7.97;1.85;;;19.20;94.10;;;;;;5047700;28;20032;-74
2022/07/28 07:38:40;;;;;;;6.70;1.48;;;19.30;93.80;;;;;;5050440;28;20440;-72
2022/07/28 07:41:06;;;;;;;7.90;1.15;;;19.30;93.20;;;;;;5059389;28;20029;-75
2022/07/28 07:43:31;;;;;;;7.75;1.83;;;19.50;93.30;;;;;;5051709;28;20060;-75
2022/07/28 07:45:57;;;;;;;7.20;1.38;;;19.60;93.20;;;;;;5046198;28;20037;-75
2022/07/28 07:48:23;;;;;;;5.32;1.30;;;19.70;92.60;;;;;;5047727;28;20041;-73
2022/07/28 07:50:48;;;;;;;5.65;1.33;;;19.80;91.70;;;;;;5067032;28;20044;-75
2022/07/28 07:53:14;;;;;;;5.22;1.20;;;19.80;91.80;;;;;;5061806;28;20380;-73
2022/07/28 07:55:39;;;;;;;4.43;1.05;;;20.00;91.50;;;;;;5062767;28;20025;-74
2022/07/28 07:58:05;;;;;;;5.18;1.45;;;20.10;90.90;;;;;;5054242;28;20463;-75
2022/07/28 08:00:31;;;;;;;2.67;1.08;;;20.20;90.60;;;;;;5057019;28;20028;-76
2022/07/28 08:02:57;;;;;;;6.13;1.30;;;20.30;90.10;;;;;;5060238;28;20524;-76
2022/07/28 08:05:23;;;;;;;4.82;1.45;;;20.40;89.00;;;;;;5050241;28;20550;-76
2022/07/28 08:07:49;;;;;;;5.70;1.23;;;20.40;87.90;;;;;;5062570;28;20029;-76
2022/07/28 08:10:14;;;;;;;3.70;1.27;;;20.40;88.50;;;;;;5045637;28;20036;-75
2022/07/28 08:12:40;;;;;;;4.32;1.20;;;20.40;88.20;;;;;;5054750;28;20556;-75
2022/07/28 08:15:07;;;;;;;5.75;1.20;;;20.50;87.90;;;;;;5049589;28;20572;-74
2022/07/28 08:17:32;;;;;;;4.40;1.20;;;20.50;87.90;;;;;;5054178;28;20025;-74
2022/07/28 08:19:58;;;;;;;7.97;1.33;;;20.50;87.90;;;;;;5056715;28;20039;-76
2022/07/28 08:22:23;;;;;;;2.83;1.25;;;20.60;91.00;;;;;;5060794;28;20068;-77
2022/07/28 08:24:49;;;;;;;6.47;1.48;;;20.70;90.40;;;;;;5054866;28;20443;-75
2022/07/28 08:27:15;;;;;;;7.60;1.60;;;20.90;90.00;;;;;;5057156;28;20037;-76
2022/07/28 08:29:41;;;;;;;6.70;1.00;;;21.00;88.40;;;;;;5053579;28;20098;-78
2022/07/28 08:32:07;;;;;;;5.03;1.10;;;21.10;88.10;;;;;;5055359;28;20424;-79
2022/07/28 08:34:33;;;;;;;6.53;1.27;;;21.20;85.90;;;;;;5064174;28;20028;-77
2022/07/28 08:37:01;;;;;;;8.38;1.40;;;21.20;85.00;;;;;;5056024;28;20083;-77
2022/07/28 08:39:27;;;;;;;7.65;1.38;;;21.10;83.90;;;;;;5060454;28;20111;-76
2022/07/28 08:42:04;;;;;;;5.60;1.10;;;21.10;84.20;;;;;;5053767;28;20022;-77
2022/07/28 08:44:40;;;;;;;3.22;0.95;;;21.10;84.10;;;;;;5062475;28;20061;-74
2022/07/28 08:47:09;;;;;;;6.68;1.30;;;21.10;82.70;;;;;;5061595;28;20485;-73
2022/07/28 08:49:39;;;;;;;6.53;1.33;;;21.20;82.30;;;;;;5056501;28;20398;-73
2022/07/28 08:52:06;;;;;;;6.68;1.20;;;21.20;81.10;;;;;;5063837;28;20025;-76
2022/07/28 08:54:32;;;;;;;6.47;1.10;;;21.10;81.20;;;;;;5054732;28;20043;-75
2022/07/28 08:56:58;;;;;;;5.07;1.30;;;21.00;81.50;;;;;;5068637;28;20385;-75
2022/07/28 08:59:24;;;;;;;2.55;0.95;;;21.00;80.60;;;;;;5049248;28;20258;-75
2022/07/28 09:01:51;;;;;;;6.13;1.38;;;21.10;79.70;;;;;;5062128;28;20722;-75
2022/07/28 09:04:19;;;;;;;3.20;0.85;;;21.20;79.50;;;;;;5052148;28;20031;-74
2022/07/28 09:06:45;;;;;;;5.63;1.10;;;21.20;79.10;;;;;;5072914;28;20028;-76
2022/07/28 09:09:10;;;;;;;4.35;1.08;;;21.20;80.00;;;;;;5052519;28;20036;-75
2022/07/28 09:11:37;;;;;;;4.78;0.93;;;21.20;79.80;;;;;;5064947;28;20024;-72
2022/07/28 09:14:03;;;;;;;4.05;1.05;;;21.30;78.80;;;;;;5058620;28;20020;-72
2022/07/28 09:16:30;;;;;;;5.53;1.10;;;21.40;78.20;;;;;;5070743;28;20516;-75
2022/07/28 09:18:55;;;;;;;4.38;1.00;;;21.30;78.50;;;;;;5052668;28;20120;-75
2022/07/28 09:21:21;;;;;;;2.78;0.77;;;21.30;78.30;;;;;;5064543;28;20118;-75
2022/07/28 09:23:48;;;;;;;6.13;1.10;;;21.40;78.10;;;;;;5062249;28;20400;-77
2022/07/28 09:26:16;;;;;;;4.75;1.10;;;21.50;77.20;;;;;;5063613;28;20502;-75
2022/07/28 09:29:02;;;;;;;5.60;1.08;;;21.50;77.40;;;;;;5057093;28;20137;-76
2022/07/28 09:31:29;;;;;;;4.97;1.20;;;21.50;77.50;;;;;;5059102;28;20504;-76
2022/07/28 09:33:59;;;;;;;4.93;1.00;;;21.60;77.70;;;;;;5065785;28;20495;-75
2022/07/28 09:36:36;;;;;;;8.27;1.30;;;21.90;77.40;;;;;;5053374;28;20103;-76
2022/07/28 09:39:02;;;;;;;8.82;1.02;;;21.90;76.50;;;;;;5047089;28;20032;-74
2022/07/28 09:41:28;;;;;;;4.47;1.17;;;22.00;76.50;;;;;;5054161;28;20037;-75
2022/07/28 09:43:53;;;;;;;6.97;1.00;;;21.90;76.00;;;;;;5053903;28;20033;-74
2022/07/28 09:46:21;;;;;;;4.93;0.98;;;21.90;76.30;;;;;;5058087;28;20024;-75
2022/07/28 09:48:52;;;;;;;4.55;1.10;;;22.00;76.50;;;;;;5071234;28;20534;-74
2022/07/28 09:51:20;;;;;;;4.30;1.02;;;22.10;75.30;;;;;;5059619;28;20112;-76
2022/07/28 09:53:45;;;;;;;3.53;1.00;;;22.10;75.00;;;;;;5065060;28;20035;-75
2022/07/28 09:56:12;;;;;;;5.57;1.10;;;22.00;75.10;;;;;;5050852;28;20025;-74
2022/07/28 09:58:38;;;;;;;5.13;0.98;;;22.20;74.70;;;;;;5051482;28;20503;-76
2022/07/28 10:01:14;;;;;;;15.18;2.00;;;22.20;74.60;;;;;;5051114;28;20128;-76
2022/07/28 10:03:42;;;;;;;6.60;1.05;;;22.40;73.50;;;;;;5053767;28;20039;-76
2022/07/28 10:06:13;;;;;;;3.70;0.82;;;22.50;73.00;;;;;;5065727;28;20511;-76
2022/07/28 10:08:49;;;;;;;6.15;1.00;;;22.70;73.30;;;;;;5053105;28;20043;-76
2022/07/28 10:11:17;;;;;;;4.15;1.00;;;23.00;72.70;;;;;;5075320;28;20409;-77
2022/07/28 10:14:02;;;;;;;2.70;0.80;;;22.90;71.60;;;;;;5054127;28;20477;-76
2022/07/28 10:16:30;;;;;;;2.85;0.93;;;22.90;71.90;;;;;;5042286;28;20811;-76
2022/07/28 10:18:58;;;;;;;6.05;1.00;;;23.00;72.00;;;;;;5049094;28;20021;-76
2022/07/28 10:21:26;;;;;;;5.30;0.90;;;23.00;70.10;;;;;;5051167;28;20043;-76
2022/07/28 10:23:54;;;;;;;4.65;0.80;;;23.00;68.90;;;;;;5046611;28;20028;-76
2022/07/28 10:26:26;;;;;;;6.47;0.90;;;23.10;69.20;;;;;;5049983;28;20028;-77
2022/07/28 10:28:53;;;;;;;3.08;1.00;;;23.10;68.90;;;;;;5068944;28;20025;-77
2022/07/28 10:31:30;;;;;;;4.72;0.98;;;23.10;67.10;;;;;;5045828;28;20029;-77
2022/07/28 10:33:59;;;;;;;4.30;1.00;;;23.10;68.40;;;;;;5067732;28;20035;-76
2022/07/28 10:36:26;;;;;;;4.70;0.77;;;23.20;68.50;;;;;;5055810;28;20079;-76
2022/07/28 10:39:02;;;;;;;2.95;0.80;;;23.20;68.70;;;;;;5047286;28;20397;-76
2022/07/28 10:41:38;;;;;;;1.92;0.75;;;23.20;69.20;;;;;;5056689;28;20040;-76
2022/07/28 10:44:04;;;;;;;3.67;0.93;;;23.30;67.90;;;;;;5055639;28;20074;-76
2022/07/28 10:46:31;;;;;;;3.72;0.90;;;23.40;67.10;;;;;;5051778;28;20233;-76
2022/07/28 10:48:57;;;;;;;4.00;0.82;;;23.50;68.00;;;;;;5052462;28;20047;-77
2022/07/28 10:51:24;;;;;;;1.88;1.00;;;23.40;67.50;;;;;;5060850;28;20299;-76
2022/07/28 10:54:07;;;;;;;4.78;0.93;;;23.30;67.70;;;;;;5052946;28;20516;-76
2022/07/28 10:56:32;;;;;;;6.45;1.00;;;23.40;66.90;;;;;;5050609;28;20542;-76
2022/07/28 10:59:38;;;;;;;5.15;1.00;;;23.40;67.20;;;;;;5047380;28;20033;-76
2022/07/28 11:02:04;;;;;;;2.70;0.73;;;23.40;66.60;;;;;;5052144;28;20021;-76
2022/07/28 11:04:47;;;;;;;4.60;0.80;;;23.40;66.80;;;;;;5048509;28;20029;-75
2022/07/28 11:07:14;;;;;;;;;;;23.60;65.70;;;;;;5052651;28;20619;-75
2022/07/28 11:09:40;;;;;;;4.22;1.08;;;23.80;65.50;;;;;;5059038;28;20185;-77
2022/07/28 11:12:06;;;;;;;1.95;0.75;;;23.90;65.70;;;;;;5055792;28;20033;-76
2022/07/28 11:14:36;;;;;;;3.30;0.85;;;23.80;65.40;;;;;;5061387;28;20520;-78
2022/07/28 11:17:04;;;;;;;5.60;1.08;;;23.80;65.60;;;;;;5060827;28;20039;-76
2022/07/28 11:19:42;;;;;;;2.03;0.88;;;23.80;65.70;;;;;;5056733;28;20029;-76
2022/07/28 11:22:17;;;;;;;1.90;0.90;;;24.00;65.10;;;;;;5054637;28;20071;-76
2022/07/28 11:25:01;;;;;;;3.35;0.90;;;24.30;64.00;;;;;;5055423;28;20225;-76
2022/07/28 11:27:40;;;;;;;3.22;0.82;;;;;;;;;;5052805;28;20272;-76
2022/07/28 11:30:06;;;;;;;2.38;0.80;;;;;;;;;;5050395;28;20040;-77
2022/07/28 11:32:49;;;;;;;1.75;0.77;;;25.20;92.90;;;;;;5048639;28;20032;-76
2022/07/28 11:35:17;;;;;;;6.55;1.20;;;25.40;93.60;;;;;;5048938;28;20027;-76
2022/07/28 11:38:00;;;;;;;3.72;0.90;;;25.40;93.40;;;;;;5063977;28;20040;-77
2022/07/28 11:40:54;;;;;;;3.17;0.95;;;25.30;93.00;;;;;;4853637;28;10000732;-75
2022/07/28 11:43:20;;;;;;;3.35;0.88;;;25.10;92.90;;;;;;5042397;28;20253;-75
2022/07/28 11:45:47;;;;;;;4.07;0.90;;;25.00;93.20;;;;;;5054740;28;20020;-76
2022/07/28 11:48:16;;;;;;;7.35;0.90;;;25.10;93.10;;;;;;5060587;28;20268;-75
2022/07/28 11:51:02;;;;;;;2.78;1.10;;;25.00;93.00;;;;;;5050975;28;20393;-75
2022/07/28 11:53:38;;;;;;;2.70;0.77;;;24.90;93.00;;;;;;5052920;28;20035;-75
2022/07/28 11:56:11;;;;;;;3.67;1.13;;;24.80;92.70;;;;;;5064187;28;20021;-75
2022/07/28 11:58:37;;;;;;;2.03;0.90;;;24.90;92.90;;;;;;5060785;28;20033;-75
2022/07/28 12:01:14;;;;;;;3.95;0.88;;;25.00;92.80;;;;;;5055536;28;20615;-75
2022/07/28 12:03:41;;;;;;;7.20;1.15;;;25.30;92.90;;;;;;5046217;28;20085;-75
2022/07/28 12:06:07;;;;;;;3.00;0.88;;;25.50;92.70;;;;;;5055735;28;20514;-76
2022/07/28 12:09:09;;;;;;;3.40;1.00;;;25.20;92.70;;;;;;5043385;28;20519;-75
2022/07/28 12:11:41;;;;;;;3.08;0.90;;;24.90;92.70;;;;;;4970650;28;20030;-75
2022/07/28 12:14:12;;;;;;;1.48;0.77;;;24.80;93.20;;;;;;5045571;28;20452;-75
2022/07/28 12:16:40;;;;;;;3.17;1.00;;;24.70;93.00;;;;;;5059965;28;20064;-75
2022/07/28 12:19:08;;;;;;;4.45;0.80;;;24.70;93.10;;;;;;5048352;28;20218;-75
2022/07/28 12:21:42;;;;;;;2.10;0.90;;;24.90;93.10;;;;;;5055073;28;20024;-75
2022/07/28 12:24:10;;;;;;;1.42;0.70;;;25.10;92.50;;;;;;5038201;28;20036;-75
2022/07/28 12:26:37;;;;;;;3.30;0.80;;;25.30;91.80;;;;;;5043731;28;20036;-75
2022/07/28 12:29:04;;;;;;;4.53;1.00;;;25.50;92.10;;;;;;5039250;28;20052;-75
2022/07/28 12:31:34;;;;;;;2.92;0.88;;;25.70;92.20;;;;;;5044616;28;20029;-75
2022/07/28 12:34:04;;;;;;;0.93;0.60;;;25.60;91.80;;;;;;5063814;28;20036;-76
2022/07/28 12:36:30;;;;;;;3.40;0.95;;;25.70;91.60;;;;;;5046457;28;20087;-75
2022/07/28 12:38:56;;;;;;;4.13;0.80;;;25.80;91.40;;;;;;5070947;28;20539;-76
2022/07/28 12:41:28;;;;;;;15.43;1.65;;;25.90;91.80;;;;;;5056297;28;20108;-76
2022/07/28 12:43:54;;;;;;;228.30;7.03;;;25.90;91.80;;;;;;5058542;28;20512;-76
2022/07/28 12:46:27;;;;;;;16.95;1.42;;;25.60;91.80;;;;;;5048263;28;20128;-76
2022/07/28 12:48:54;;;;;;;133.75;4.65;;;25.30;92.10;;;;;;5052833;28;20104;-76
2022/07/28 12:51:44;;;;;;;23.02;1.45;;;25.30;91.80;;;;;;5054621;28;20047;-76
2022/07/28 12:54:11;;;;;;;9.98;1.10;;;25.30;92.20;;;;;;5045193;28;20029;-76
2022/07/28 12:56:51;;;;;;;6.65;0.90;;;25.30;91.90;;;;;;5045399;28;20441;-76
2022/07/28 12:59:18;;;;;;;17.48;1.20;;;25.20;92.00;;;;;;5045126;28;20040;-76